createdAt,value
2019-05-08T00:00:46.688Z,100557.78
2019-05-08T00:03:23.895Z,100553.46
2019-05-08T00:05:53.835Z,100550.34
2019-05-08T00:08:23.779Z,100553.81
2019-05-08T00:10:53.825Z,100549.86
2019-05-08T00:13:23.616Z,100549.98
2019-05-08T00:15:58.686Z,100548.08
2019-05-08T00:18:28.548Z,100548.66
2019-05-08T00:20:58.503Z,100540.62
2019-05-08T00:23:28.346Z,100540.97
2019-05-08T00:25:58.301Z,100533.89
2019-05-08T00:28:28.542Z,100532.22
2019-05-08T00:30:58.784Z,100525.97
2019-05-08T00:33:35.178Z,100517.08
2019-05-08T00:36:05.123Z,100506.04
2019-05-08T00:38:35.003Z,100512.03
2019-05-08T00:41:04.961Z,100500.85
2019-05-08T00:43:35.177Z,100508.16
2019-05-08T00:46:07.337Z,100506.84
2019-05-08T00:48:37.195Z,100505.66
2019-05-08T00:51:07.478Z,100496.92
2019-05-08T00:53:38.936Z,100496.22
2019-05-08T00:56:13.443Z,100488.78
2019-05-08T00:58:46.991Z,100491.33
2019-05-08T01:01:32.218Z,100477.52
2019-05-08T01:04:02.500Z,100468.98
2019-05-08T01:06:32.424Z,100464.41
2019-05-08T01:09:02.317Z,100463.80
2019-05-08T01:11:34.219Z,100458.52
2019-05-08T01:14:04.229Z,100457.55
2019-05-08T01:16:34.171Z,100453.59
2019-05-08T01:19:04.044Z,100451.08
2019-05-08T01:21:34.461Z,100446.27
2019-05-08T01:24:04.396Z,100447.24
2019-05-08T01:26:34.339Z,100443.90
2019-05-08T01:29:04.272Z,100445.70
2019-05-08T01:31:34.208Z,100442.70
2019-05-08T01:34:04.071Z,100440.36
2019-05-08T01:36:34.269Z,100439.17
2019-05-08T01:39:24.485Z,100442.30
2019-05-08T01:41:54.415Z,100437.50
2019-05-08T01:44:24.423Z,100430.89
2019-05-08T01:47:12.293Z,100428.73
2019-05-08T01:49:42.713Z,100414.35
2019-05-08T01:52:12.911Z,100417.60
2019-05-08T01:54:43.003Z,100414.97
2019-05-08T01:57:13.906Z,100405.73
2019-05-08T01:59:43.699Z,100403.57
2019-05-08T02:02:13.989Z,100390.86
2019-05-08T02:04:44.026Z,100386.41
2019-05-08T02:07:13.957Z,100381.27
2019-05-08T02:09:43.823Z,100374.45
2019-05-08T02:12:13.769Z,100368.11
2019-05-08T02:14:43.713Z,100350.77
2019-05-08T02:17:13.661Z,100343.45
2019-05-08T02:19:43.609Z,100341.30
2019-05-08T02:22:29.355Z,100335.81
2019-05-08T02:25:08.706Z,100332.46
2019-05-08T02:27:45.592Z,100323.84
2019-05-08T02:30:15.631Z,100316.84
2019-05-08T02:32:45.560Z,100312.39
2019-05-08T02:35:15.494Z,100304.78
2019-05-08T02:37:45.436Z,100307.16
2019-05-08T02:40:15.369Z,100299.46
2019-05-08T02:42:45.310Z,100287.81
2019-05-08T02:45:15.457Z,100284.52
2019-05-08T02:47:45.401Z,100280.44
2019-05-08T02:50:15.278Z,100274.32
2019-05-08T02:52:45.111Z,100273.70
2019-05-08T02:55:15.332Z,100262.53
2019-05-08T02:57:45.483Z,100261.92
2019-05-08T03:00:15.688Z,100254.70
2019-05-08T03:03:04.610Z,100244.14
2019-05-08T03:05:35.321Z,100244.84
2019-05-08T03:08:05.251Z,100233.81
2019-05-08T03:10:35.453Z,100238.25
2019-05-08T03:13:05.379Z,100228.53
2019-05-08T03:15:35.362Z,100231.17
2019-05-08T03:18:05.723Z,100231.30
2019-05-08T03:20:35.931Z,100221.23
2019-05-08T03:23:05.824Z,100223.03
2019-05-08T03:25:41.460Z,100211.99
2019-05-08T03:28:11.314Z,100205.75
2019-05-08T03:30:43.766Z,100202.63
2019-05-08T03:33:14.326Z,100200.95
2019-05-08T03:35:44.780Z,100198.80
2019-05-08T03:38:15.139Z,100194.00
2019-05-08T03:40:45.173Z,100194.62
2019-05-08T03:43:14.958Z,100184.20
2019-05-08T03:46:03.617Z,100184.83
2019-05-08T03:48:52.162Z,100180.52
2019-05-08T03:51:22.120Z,100172.38
2019-05-08T03:53:53.047Z,100164.77
2019-05-08T03:56:23.085Z,100162.75
2019-05-08T03:58:53.284Z,100170.31
2019-05-08T04:01:23.871Z,100160.73
2019-05-08T04:03:54.050Z,100150.80
2019-05-08T04:06:24.301Z,100149.00
2019-05-08T04:09:00.672Z,100145.17
2019-05-08T04:11:32.593Z,100139.90
2019-05-08T04:14:02.513Z,100142.19
2019-05-08T04:17:00.494Z,100135.94
2019-05-08T04:19:31.181Z,100130.66
2019-05-08T04:22:01.071Z,100125.04
2019-05-08T04:24:31.386Z,100127.68
2019-05-08T04:27:01.468Z,100128.64
2019-05-08T04:29:46.988Z,100122.27
2019-05-08T04:32:03.948Z,100115.53
2019-05-08T04:34:33.849Z,100109.64
2019-05-08T04:37:04.121Z,100106.73
2019-05-08T04:39:34.069Z,100105.11
2019-05-08T04:42:03.948Z,100107.47
2019-05-08T04:44:34.216Z,100106.02
2019-05-08T04:47:13.057Z,100094.84
2019-05-08T04:49:42.871Z,100085.33
2019-05-08T04:52:12.792Z,100079.61
2019-05-08T04:54:50.946Z,100074.05
2019-05-08T04:57:20.693Z,100077.38
2019-05-08T05:00:07.361Z,100068.22
2019-05-08T05:02:22.336Z,100059.33
2019-05-08T05:04:52.231Z,100053.77
2019-05-08T05:07:23.079Z,100052.97
2019-05-08T05:09:53.131Z,100046.23
2019-05-08T05:12:24.133Z,100047.27
2019-05-08T05:14:53.923Z,100045.67
2019-05-08T05:17:24.077Z,100038.94
2019-05-08T05:19:53.886Z,100028.72
2019-05-08T05:22:23.740Z,100024.96
2019-05-08T05:24:53.606Z,100025.62
2019-05-08T05:27:23.549Z,100019.86
2019-05-08T05:29:53.669Z,100017.42
2019-05-08T05:32:23.533Z,100009.50
2019-05-08T05:34:55.015Z,100003.93
2019-05-08T05:37:26.676Z,100007.13
2019-05-08T05:40:00.639Z,100003.36
2019-05-08T05:42:39.905Z,100004.02
2019-05-08T05:45:10.172Z,100004.02
2019-05-08T05:47:40.396Z,99998.45
2019-05-08T05:50:13.960Z,99995.52
2019-05-08T05:52:42.226Z,99991.70
2019-05-08T05:55:12.366Z,99995.78
2019-05-08T05:57:42.336Z,99992.34
2019-05-08T06:00:13.339Z,99987.55
2019-05-08T06:02:43.199Z,99989.90
2019-05-08T06:05:13.123Z,99985.02
2019-05-08T06:07:43.010Z,99980.22
2019-05-08T06:10:12.935Z,99990.88
2019-05-08T06:12:43.781Z,99994.20
2019-05-08T06:15:14.059Z,99986.14
2019-05-08T06:17:54.834Z,99988.69
2019-05-08T06:20:24.865Z,99984.06
2019-05-08T06:22:55.019Z,99976.54
2019-05-08T06:25:25.496Z,99984.86
2019-05-08T06:27:55.442Z,99984.46
2019-05-08T06:30:25.627Z,99978.45
2019-05-08T06:32:55.854Z,99982.96
2019-05-08T06:35:26.570Z,99978.17
2019-05-08T06:37:56.517Z,99979.69
2019-05-08T06:40:26.434Z,99976.65
2019-05-08T06:43:01.834Z,99973.56
2019-05-08T06:45:55.751Z,99970.24
2019-05-08T06:48:29.354Z,99965.84
2019-05-08T06:50:59.718Z,99966.04
2019-05-08T06:53:36.908Z,99964.13
2019-05-08T06:56:10.418Z,99963.66
2019-05-08T06:58:40.179Z,99954.06
2019-05-08T07:01:16.994Z,99958.23
2019-05-08T07:03:50.245Z,99957.15
2019-05-08T07:06:21.430Z,99949.27
2019-05-08T07:08:51.366Z,99943.31
2019-05-08T07:11:21.296Z,99939.69
2019-05-08T07:13:51.968Z,99936.89
2019-05-08T07:16:39.864Z,99929.50
2019-05-08T07:19:20.358Z,99925.58
2019-05-08T07:21:52.618Z,99912.66
2019-05-08T07:24:22.590Z,99912.98
2019-05-08T07:26:52.535Z,99900.22
2019-05-08T07:29:24.218Z,99898.86
2019-05-08T07:31:54.139Z,99895.97
2019-05-08T07:34:24.067Z,99896.01
2019-05-08T07:36:53.855Z,99883.48
2019-05-08T07:39:24.882Z,99874.91
2019-05-08T07:41:55.089Z,99868.64
2019-05-08T07:44:29.531Z,99862.29
2019-05-08T07:46:57.219Z,99855.04
2019-05-08T07:49:29.109Z,99849.11
2019-05-08T07:52:00.042Z,99855.91
2019-05-08T07:54:30.453Z,99855.92
2019-05-08T07:57:00.337Z,99846.86
2019-05-08T07:59:30.173Z,99840.89
2019-05-08T08:02:01.090Z,99839.38
2019-05-08T08:04:34.814Z,99838.39
2019-05-08T08:07:09.893Z,99837.56
2019-05-08T08:09:40.604Z,99828.01
2019-05-08T08:12:11.789Z,99827.86
2019-05-08T08:14:42.800Z,99828.39
2019-05-08T08:17:21.293Z,99817.17
2019-05-08T08:19:51.038Z,99816.03
2019-05-08T08:22:21.087Z,99815.23
2019-05-08T08:24:50.943Z,99808.81
2019-05-08T08:27:20.802Z,99820.41
2019-05-08T08:29:50.655Z,99810.02
2019-05-08T08:32:20.519Z,99812.17
2019-05-08T08:34:50.599Z,99794.36
2019-05-08T08:37:20.534Z,99793.22
2019-05-08T08:39:50.487Z,99787.30
2019-05-08T08:42:20.430Z,99785.02
2019-05-08T08:44:50.787Z,99787.51
2019-05-08T08:47:43.089Z,99780.40
2019-05-08T08:50:19.350Z,99782.38
2019-05-08T08:53:10.095Z,99776.43
2019-05-08T08:55:40.057Z,99769.97
2019-05-08T08:58:10.105Z,99772.30
2019-05-08T09:00:41.877Z,99772.30
2019-05-08T09:03:11.738Z,99761.88
2019-05-08T09:05:41.672Z,99756.25
2019-05-08T09:08:12.608Z,99757.59
2019-05-08T09:10:42.765Z,99759.27
2019-05-08T09:13:12.703Z,99750.02
2019-05-08T09:15:42.895Z,99752.34
2019-05-08T09:18:12.909Z,99750.69
2019-05-08T09:20:42.950Z,99749.36
2019-05-08T09:23:12.888Z,99737.61
2019-05-08T09:25:42.724Z,99726.53
2019-05-08T09:28:12.642Z,99731.48
2019-05-08T09:30:44.068Z,99731.17
2019-05-08T09:33:14.932Z,99736.47
2019-05-08T09:35:44.824Z,99732.14
2019-05-08T09:38:15.070Z,99730.61
2019-05-08T09:40:44.876Z,99726.98
2019-05-08T09:43:14.885Z,99724.49
2019-05-08T09:45:45.095Z,99722.86
2019-05-08T09:48:14.964Z,99718.22
2019-05-08T09:50:45.204Z,99717.56
2019-05-08T09:53:15.145Z,99709.80
2019-05-08T09:55:44.990Z,99703.52
2019-05-08T09:58:14.935Z,99693.77
2019-05-08T10:00:54.495Z,99690.96
2019-05-08T10:03:24.621Z,99690.63
2019-05-08T10:05:54.949Z,99685.19
2019-05-08T10:08:24.905Z,99683.22
2019-05-08T10:10:54.842Z,99683.88
2019-05-08T10:13:24.785Z,99671.50
2019-05-08T10:15:54.717Z,99642.20
2019-05-08T10:18:24.588Z,99633.28
2019-05-08T10:20:54.991Z,99625.17
2019-05-08T10:23:25.049Z,99627.66
2019-05-08T10:25:55.097Z,99626.98
2019-05-08T10:28:25.387Z,99621.67
2019-05-08T10:31:00.848Z,99625.98
2019-05-08T10:33:30.727Z,99622.64
2019-05-08T10:36:07.930Z,99618.50
2019-05-08T10:38:39.493Z,99614.70
2019-05-08T10:41:16.878Z,99604.09
2019-05-08T10:43:49.910Z,99605.75
2019-05-08T10:46:20.252Z,99600.95
2019-05-08T10:48:50.511Z,99598.80
2019-05-08T10:51:20.465Z,99602.61
2019-05-08T10:53:50.643Z,99589.23
2019-05-08T10:56:20.519Z,99581.77
2019-05-08T10:58:50.455Z,99567.37
2019-05-08T11:01:20.392Z,99557.27
2019-05-08T11:03:50.334Z,99541.17
2019-05-08T11:06:45.441Z,99524.94
2019-05-08T11:09:40.395Z,99511.98
2019-05-08T11:12:30.058Z,99513.28
2019-05-08T11:15:00.180Z,99496.34
2019-05-08T11:17:30.499Z,99507.59
2019-05-08T11:20:00.433Z,99503.12
2019-05-08T11:22:31.178Z,99491.01
2019-05-08T11:25:02.144Z,99488.52
2019-05-08T11:27:32.495Z,99499.45
2019-05-08T11:30:02.693Z,99503.94
2019-05-08T11:32:34.134Z,99508.08
2019-05-08T11:35:04.441Z,99507.77
2019-05-08T11:37:34.428Z,99498.33
2019-05-08T11:40:06.703Z,99484.58
2019-05-08T11:42:54.922Z,99481.42
2019-05-08T11:45:35.676Z,99480.76
2019-05-08T11:48:07.745Z,99484.73
2019-05-08T11:50:39.643Z,99474.95
2019-05-08T11:53:11.119Z,99479.76
2019-05-08T11:55:40.367Z,99480.09
2019-05-08T11:58:12.624Z,99462.53
2019-05-08T12:00:42.019Z,99462.86
2019-05-08T12:03:11.874Z,99459.87
2019-05-08T12:05:41.719Z,99462.19
2019-05-08T12:08:11.607Z,99456.39
2019-05-08T12:10:42.050Z,99462.84
2019-05-08T12:13:11.927Z,99462.34
2019-05-08T12:15:41.858Z,99454.39
2019-05-08T12:18:11.648Z,99448.11
2019-05-08T12:20:41.576Z,99442.16
2019-05-08T12:23:11.745Z,99446.81
2019-05-08T12:25:41.515Z,99448.34
2019-05-08T12:28:20.364Z,99441.39
2019-05-08T12:31:10.074Z,99447.20
2019-05-08T12:33:49.768Z,99441.07
2019-05-08T12:36:19.793Z,99436.45
2019-05-08T12:38:49.667Z,99441.91
2019-05-08T12:41:19.597Z,99442.91
2019-05-08T12:43:50.505Z,99424.86
2019-05-08T12:46:20.506Z,99422.88
2019-05-08T12:48:50.369Z,99422.38
2019-05-08T12:51:20.289Z,99419.56
2019-05-08T12:53:55.023Z,99411.78
2019-05-08T12:56:27.056Z,99408.30
2019-05-08T12:58:56.990Z,99411.33
2019-05-08T13:01:40.695Z,99409.30
2019-05-08T13:04:03.713Z,99409.50
2019-05-08T13:06:36.130Z,99410.50
2019-05-08T13:09:15.786Z,99399.91
2019-05-08T13:11:36.072Z,99397.92
2019-05-08T13:14:06.123Z,99391.78
2019-05-08T13:16:36.372Z,99391.08
2019-05-08T13:19:06.332Z,99386.28
2019-05-08T13:21:36.547Z,99380.81
2019-05-08T13:24:06.405Z,99372.52
2019-05-08T13:26:36.283Z,99365.23
2019-05-08T13:29:06.584Z,99358.27
2019-05-08T13:31:36.488Z,99354.12
2019-05-08T13:34:06.327Z,99351.80
2019-05-08T13:36:38.036Z,99355.27
2019-05-08T13:39:09.780Z,99350.64
2019-05-08T13:41:42.298Z,99344.84
2019-05-08T13:44:20.022Z,99343.04
2019-05-08T13:46:56.309Z,99344.38
2019-05-08T13:49:25.777Z,99333.11
2019-05-08T13:52:15.223Z,99336.59
2019-05-08T13:54:44.287Z,99341.55
2019-05-08T13:57:18.345Z,99343.84
2019-05-08T13:59:46.365Z,99337.37
2019-05-08T14:02:16.929Z,99337.55
2019-05-08T14:04:50.408Z,99330.77
2019-05-08T14:07:20.864Z,99332.09
2019-05-08T14:09:51.117Z,99324.14
2019-05-08T14:12:20.935Z,99318.50
2019-05-08T14:14:50.871Z,99312.22
2019-05-08T14:17:24.934Z,99301.63
2019-05-08T14:19:55.456Z,99304.09
2019-05-08T14:22:25.534Z,99295.67
2019-05-08T14:24:55.374Z,99297.02
2019-05-08T14:27:25.338Z,99288.39
2019-05-08T14:29:55.176Z,99286.57
2019-05-08T14:32:37.054Z,99283.42
2019-05-08T14:35:10.035Z,99274.47
2019-05-08T14:37:40.248Z,99279.62
2019-05-08T14:40:11.146Z,99264.77
2019-05-08T14:42:40.999Z,99263.13
2019-05-08T14:45:11.050Z,99261.30
2019-05-08T14:47:40.941Z,99254.63
2019-05-08T14:50:10.935Z,99247.50
2019-05-08T14:52:41.190Z,99249.38
2019-05-08T14:55:11.413Z,99242.75
2019-05-08T14:57:41.427Z,99239.78
2019-05-08T15:00:11.895Z,99231.27
2019-05-08T15:02:41.838Z,99231.92
2019-05-08T15:05:12.017Z,99221.47
2019-05-08T15:07:41.898Z,99212.84
2019-05-08T15:10:12.223Z,99211.34
2019-05-08T15:12:42.163Z,99209.84
2019-05-08T15:15:12.106Z,99199.75
2019-05-08T15:17:43.531Z,99195.98
2019-05-08T15:20:13.793Z,99195.48
2019-05-08T15:22:43.642Z,99187.84
2019-05-08T15:25:13.971Z,99175.42
2019-05-08T15:27:46.191Z,99172.77
2019-05-08T15:30:37.521Z,99163.33
2019-05-08T15:33:11.009Z,99160.49
2019-05-08T15:35:40.882Z,99165.47
2019-05-08T15:38:10.804Z,99161.64
2019-05-08T15:40:40.754Z,99158.81
2019-05-08T15:43:10.623Z,99170.67
2019-05-08T15:45:41.032Z,99162.94
2019-05-08T15:48:12.817Z,99163.11
2019-05-08T15:50:42.769Z,99159.46
2019-05-08T15:53:13.361Z,99155.28
2019-05-08T15:55:43.320Z,99151.62
2019-05-08T15:58:13.977Z,99146.83
2019-05-08T16:00:44.253Z,99146.33
2019-05-08T16:03:14.114Z,99145.82
2019-05-08T16:05:44.045Z,99142.84
2019-05-08T16:08:14.224Z,99149.86
2019-05-08T16:10:44.285Z,99153.66
2019-05-08T16:13:14.211Z,99149.69
2019-05-08T16:15:44.155Z,99154.77
2019-05-08T16:18:14.081Z,99158.42
2019-05-08T16:20:44.019Z,99160.49
2019-05-08T16:23:14.876Z,99158.99
2019-05-08T16:25:45.406Z,99163.47
2019-05-08T16:28:15.337Z,99155.84
2019-05-08T16:31:07.921Z,99154.84
2019-05-08T16:34:00.097Z,99153.52
2019-05-08T16:36:42.516Z,99146.56
2019-05-08T16:39:02.013Z,99144.23
2019-05-08T16:41:33.769Z,99143.42
2019-05-08T16:44:03.823Z,99138.94
2019-05-08T16:46:40.389Z,99126.69
2019-05-08T16:49:14.145Z,99117.92
2019-05-08T16:51:44.069Z,99112.30
2019-05-08T16:54:14.217Z,99103.84
2019-05-08T16:56:44.617Z,99123.22
2019-05-08T16:59:14.486Z,99131.49
2019-05-08T17:01:44.975Z,99106.50
2019-05-08T17:04:14.914Z,99113.77
2019-05-08T17:06:59.337Z,99146.21
2019-05-08T17:09:17.022Z,99138.97
2019-05-08T17:11:46.796Z,99134.50
2019-05-08T17:14:18.022Z,99137.97
2019-05-08T17:16:48.182Z,99142.59
2019-05-08T17:19:18.364Z,99145.56
2019-05-08T17:22:19.619Z,99149.54
2019-05-08T17:25:14.439Z,99145.56
2019-05-08T17:28:06.267Z,99144.06
2019-05-08T17:30:54.422Z,99145.39
2019-05-08T17:33:24.538Z,99151.52
2019-05-08T17:35:56.154Z,99155.16
2019-05-08T17:38:34.933Z,99155.98
2019-05-08T17:41:04.855Z,99155.48
2019-05-08T17:43:35.068Z,99166.09
2019-05-08T17:46:09.350Z,99167.41
2019-05-08T17:48:39.404Z,99160.08
2019-05-08T17:51:09.322Z,99154.45
2019-05-08T17:53:39.237Z,99156.75
2019-05-08T17:56:11.026Z,99142.81
2019-05-08T17:58:40.717Z,99143.60
2019-05-08T18:01:13.824Z,99144.06
2019-05-08T18:03:44.122Z,99137.77
2019-05-08T18:06:14.034Z,99134.90
2019-05-08T18:08:43.983Z,99135.22
2019-05-08T18:11:14.200Z,99131.25
2019-05-08T18:13:44.496Z,99125.63
2019-05-08T18:16:20.647Z,99133.58
2019-05-08T18:18:53.333Z,99142.03
2019-05-08T18:21:40.948Z,99142.74
2019-05-08T18:24:30.436Z,99147.58
2019-05-08T18:27:00.299Z,99150.73
2019-05-08T18:29:36.181Z,99153.73
2019-05-08T18:32:28.497Z,99156.25
2019-05-08T18:34:58.854Z,99147.47
2019-05-08T18:37:28.896Z,99146.47
2019-05-08T18:39:58.845Z,99143.81
2019-05-08T18:42:28.839Z,99143.99
2019-05-08T18:44:59.158Z,99139.87
2019-05-08T18:47:30.204Z,99140.91
2019-05-08T18:50:00.067Z,99144.73
2019-05-08T18:52:29.964Z,99147.39
2019-05-08T18:55:16.245Z,99146.75
2019-05-08T18:57:46.198Z,99145.59
2019-05-08T19:00:24.055Z,99146.45
2019-05-08T19:02:54.492Z,99145.31
2019-05-08T19:05:24.656Z,99135.39
2019-05-08T19:08:01.643Z,99131.91
2019-05-08T19:10:27.587Z,99137.09
2019-05-08T19:12:57.518Z,99140.28
2019-05-08T19:15:27.487Z,99144.14
2019-05-08T19:17:57.779Z,99151.14
2019-05-08T19:20:46.094Z,99160.70
2019-05-08T19:23:16.464Z,99163.73
2019-05-08T19:25:46.377Z,99168.72
2019-05-08T19:28:16.800Z,99174.02
2019-05-08T19:30:47.438Z,99178.81
2019-05-08T19:33:18.624Z,99176.98
2019-05-08T19:35:48.842Z,99181.28
2019-05-08T19:38:25.404Z,99182.28
2019-05-08T19:41:04.723Z,99191.55
2019-05-08T19:43:34.937Z,99198.55
2019-05-08T19:46:05.579Z,99186.45
2019-05-08T19:48:35.591Z,99197.38
2019-05-08T19:51:05.554Z,99199.52
2019-05-08T19:53:35.732Z,99195.38
2019-05-08T19:56:05.710Z,99187.25
2019-05-08T19:58:35.705Z,99189.91
2019-05-08T20:01:07.199Z,99206.32
2019-05-08T20:03:37.642Z,99207.47
2019-05-08T20:06:07.595Z,99208.30
2019-05-08T20:08:40.416Z,99207.47
2019-05-08T20:11:11.008Z,99207.47
2019-05-08T20:13:43.755Z,99219.72
2019-05-08T20:16:16.443Z,99220.22
2019-05-08T20:19:08.623Z,99222.09
2019-05-08T20:21:49.393Z,99223.78
2019-05-08T20:24:19.279Z,99224.45
2019-05-08T20:26:49.545Z,99227.62
2019-05-08T20:29:19.493Z,99219.86
2019-05-08T20:31:49.693Z,99222.87
2019-05-08T20:34:29.716Z,99233.48
2019-05-08T20:36:51.223Z,99230.48
2019-05-08T20:39:24.228Z,99233.32
2019-05-08T20:41:53.853Z,99236.14
2019-05-08T20:44:23.714Z,99235.81
2019-05-08T20:46:54.305Z,99233.71
2019-05-08T20:49:24.504Z,99243.48
2019-05-08T20:51:55.144Z,99242.35
2019-05-08T20:54:25.401Z,99246.53
2019-05-08T20:56:55.282Z,99249.86
2019-05-08T20:59:25.208Z,99247.55
2019-05-08T21:01:55.072Z,99249.52
2019-05-08T21:04:25.031Z,99252.66
2019-05-08T21:06:55.419Z,99246.86
2019-05-08T21:09:25.378Z,99253.11
2019-05-08T21:12:03.434Z,99249.51
2019-05-08T21:14:33.596Z,99252.66
2019-05-08T21:17:04.124Z,99255.66
2019-05-08T21:19:35.688Z,99262.77
2019-05-08T21:22:29.379Z,99277.37
2019-05-08T21:25:01.270Z,99270.77
2019-05-08T21:27:30.954Z,99280.19
2019-05-08T21:30:00.886Z,99276.77
2019-05-08T21:32:33.058Z,99273.30
2019-05-08T21:35:04.307Z,99268.51
2019-05-08T21:37:34.372Z,99264.87
2019-05-08T21:40:05.379Z,99253.62
2019-05-08T21:42:36.582Z,99263.49
2019-05-08T21:45:06.628Z,99263.00
2019-05-08T21:47:36.401Z,99261.01
2019-05-08T21:50:06.905Z,99269.44
2019-05-08T21:52:48.860Z,99270.11
2019-05-08T21:55:19.532Z,99270.14
2019-05-08T21:57:53.638Z,99270.81
2019-05-08T22:00:45.627Z,99268.30
2019-05-08T22:03:34.287Z,99266.31
2019-05-08T22:06:23.226Z,99273.42
2019-05-08T22:09:14.225Z,99266.64
2019-05-08T22:12:03.658Z,99266.31
2019-05-08T22:14:34.534Z,99263.55
2019-05-08T22:17:05.830Z,99264.38
2019-05-08T22:19:35.825Z,99265.86
2019-05-08T22:22:05.761Z,99268.50
2019-05-08T22:24:35.636Z,99269.33
2019-05-08T22:27:05.645Z,99270.15
2019-05-08T22:29:35.548Z,99274.45
2019-05-08T22:32:24.264Z,99269.17
2019-05-08T22:35:20.523Z,99277.43
2019-05-08T22:38:13.364Z,99278.75
2019-05-08T22:40:44.520Z,99279.08
2019-05-08T22:43:34.826Z,99285.07
2019-05-08T22:46:05.601Z,99286.06
2019-05-08T22:48:36.197Z,99277.44
2019-05-08T22:51:06.392Z,99284.20
2019-05-08T22:53:36.308Z,99279.41
2019-05-08T22:56:07.203Z,99281.06
2019-05-08T22:58:37.183Z,99285.70
2019-05-08T23:01:07.100Z,99284.70
2019-05-08T23:03:37.419Z,99286.56
2019-05-08T23:06:08.077Z,99282.42
2019-05-08T23:08:44.210Z,99287.34
2019-05-08T23:11:14.344Z,99281.73
2019-05-08T23:13:47.226Z,99282.72
2019-05-08T23:16:16.013Z,99287.68
2019-05-08T23:18:45.888Z,99287.72
2019-05-08T23:21:15.841Z,99294.49
2019-05-08T23:23:45.772Z,99286.56
2019-05-08T23:26:15.699Z,99288.70
2019-05-08T23:28:45.856Z,99288.70
2019-05-08T23:31:16.046Z,99291.35
2019-05-08T23:33:45.891Z,99291.52
2019-05-08T23:36:24.736Z,99289.03
2019-05-08T23:38:54.987Z,99285.07
2019-05-08T23:41:24.852Z,99283.42
2019-05-08T23:44:23.784Z,99278.80
2019-05-08T23:47:13.687Z,99279.13
2019-05-08T23:49:44.188Z,99276.15
2019-05-08T23:52:15.428Z,99271.19
2019-05-08T23:54:45.684Z,99271.69
2019-05-08T23:57:15.622Z,99273.51
2019-05-08T23:59:45.591Z,99270.86
